Latest Weather Observations for Spitfire Channel

IDQ60801

Issued at 2:32 am EST Sunday 31 July 2016 (issued every 30 minutes, with the page automatically refreshed every 10 minutes)

About weather observations | Map of weather stations | Latest weather observations for QLD | Other Formats
Station Details ID: 040927 Name: SPITFIRE CHANNEL BEACON Lat: -27.05 Lon: 153.27 Height: 7.0 m
Data from the previous 72 hours. | See also: Recent months for locations in Queensland
Date/Time
EST
Temp
°C
App
Temp
°C
Dew
Point
°C
Rel
Hum
%
Delta-T
°C
Wind Press
QNH
hPa
Press
MSL
hPa
Rain since
9am
mm
Dir  Spd
km/h
Gust
km/h
Spd
kts
Gust
kts
31/02:30am - - - - - WSW 9 11 5 6 - - -
31/02:00am - - - - - WSW 7 9 4 5 - - -
31/01:30am - - - - - SW 7 7 4 4 - - -
31/01:00am - - - - - SW 9 11 5 6 - - -
31/12:30am - - - - - SW 9 11 5 6 - - -
31/12:00am - - - - - SSW 13 15 7 8 - - -
 
Date/Time
EST
Temp
°C
App
Temp
°C
Dew
Point
°C
Rel
Hum
%
Delta-T
°C
Wind Press
QNH
hPa
Press
MSL
hPa
Rain since
9am
mm
Dir  Spd
km/h
Gust
km/h
Spd
kts
Gust
kts
30/11:30pm - - - - - SSW 11 15 6 8 - - -
30/11:00pm - - - - - SSW 15 17 8 9 - - -
30/10:30pm - - - - - SSW 13 15 7 8 - - -
30/10:00pm - - - - - SSW 11 13 6 7 - - -
30/09:30pm - - - - - SSE 4 6 2 3 - - -
30/09:00pm - - - - - ESE 4 6 2 3 - - -
30/08:30pm - - - - - ENE 4 6 2 3 - - -
30/08:00pm - - - - - E 7 9 4 5 - - -
30/07:30pm - - - - - ESE 7 7 4 4 - - -
30/07:00pm - - - - - ESE 7 9 4 5 - - -
30/06:30pm - - - - - ESE 9 11 5 6 - - -
30/06:00pm - - - - - ENE 9 11 5 6 - - -
30/05:30pm - - - - - ESE 9 9 5 5 - - -
30/05:00pm - - - - - ESE 9 13 5 7 - - -
30/04:30pm - - - - - ESE 9 9 5 5 - - -
30/04:00pm - - - - - ESE 9 11 5 6 - - -
30/03:30pm - - - - - SE 11 13 6 7 - - -
30/03:00pm - - - - - SE 13 13 7 7 - - -
30/02:30pm - - - - - SE 13 15 7 8 - - -
30/02:00pm - - - - - ESE 11 13 6 7 - - -
30/01:30pm - - - - - SE 9 11 5 6 - - -
30/01:00pm - - - - - SE 7 9 4 5 - - -
30/12:30pm - - - - - ESE 6 6 3 3 - - -
30/12:00pm - - - - - SE 6 7 3 4 - - -
30/11:30am - - - - - E 7 9 4 5 - - -
30/11:00am - - - - - SSW 6 7 3 4 - - -
30/10:30am - - - - - WSW 9 11 5 6 - - -
30/10:00am - - - - - WSW 13 15 7 8 - - -
30/09:30am - - - - - WSW 15 17 8 9 - - -
30/09:00am - - - - - SW 13 15 7 8 - - -
30/08:30am - - - - - WSW 9 11 5 6 - - -
30/08:00am - - - - - SW 9 11 5 6 - - -
30/07:30am - - - - - SW 13 15 7 8 - - -
30/07:00am - - - - - SSW 11 13 6 7 - - -
30/06:30am - - - - - SW 9 11 5 6 - - -
30/06:00am - - - - - SW 11 13 6 7 - - -
30/05:30am - - - - - WSW 19 20 10 11 - - -
30/05:00am - - - - - W 15 19 8 10 - - -
30/04:30am - - - - - WSW 19 20 10 11 - - -
30/04:00am - - - - - W 20 24 11 13 - - -
30/03:30am - - - - - W 19 22 10 12 - - -
30/03:00am - - - - - WSW 22 26 12 14 - - -
30/02:30am - - - - - WSW 19 22 10 12 - - -
30/02:00am - - - - - W 15 19 8 10 - - -
30/01:30am - - - - - W 13 17 7 9 - - -
30/01:00am - - - - - W 9 11 5 6 - - -
30/12:30am - - - - - W 9 11 5 6 - - -
30/12:00am - - - - - W 9 9 5 5 - - -
 
Date/Time
EST
Temp
°C
App
Temp
°C
Dew
Point
°C
Rel
Hum
%
Delta-T
°C
Wind Press
QNH
hPa
Press
MSL
hPa
Rain since
9am
mm
Dir  Spd
km/h
Gust
km/h
Spd
kts
Gust
kts
29/11:30pm - - - - - W 11 13 6 7 - - -
29/11:00pm - - - - - W 9 13 5 7 - - -
29/10:30pm - - - - - W 11 13 6 7 - - -
29/10:00pm - - - - - W 7 13 4 7 - - -
29/09:30pm - - - - - N 11 13 6 7 - - -
29/09:00pm - - - - - N 13 13 7 7 - - -
29/08:30pm - - - - - N 13 15 7 8 - - -
29/08:00pm - - - - - NNE 13 17 7 9 - - -
29/07:30pm - - - - - NNE 15 17 8 9 - - -
29/07:00pm - - - - - NNE 15 17 8 9 - - -
29/06:30pm - - - - - NNE 17 19 9 10 - - -
29/06:00pm - - - - - NNE 15 19 8 10 - - -
29/05:30pm - - - - - NNE 15 17 8 9 - - -
29/05:00pm - - - - - NNE 15 20 8 11 - - -
29/04:30pm - - - - - NNE 13 15 7 8 - - -
29/04:00pm - - - - - NNE 9 11 5 6 - - -
29/03:30pm - - - - - NE 7 7 4 4 - - -
29/03:00pm - - - - - ENE 6 7 3 4 - - -
29/02:30pm - - - - - ESE 6 6 3 3 - - -
29/02:00pm - - - - - ESE 6 7 3 4 - - -
29/01:30pm - - - - - SE 7 9 4 5 - - -
29/01:00pm - - - - - SE 7 9 4 5 - - -
29/12:30pm - - - - - SSE 11 11 6 6 - - -
29/12:00pm - - - - - SSE 9 11 5 6 - - -
29/11:30am - - - - - SSE 9 11 5 6 - - -
29/11:00am - - - - - S 11 13 6 7 - - -
29/10:30am - - - - - S 9 11 5 6 - - -
29/10:00am - - - - - SSE 13 15 7 8 - - -
29/09:30am - - - - - SSE 15 17 8 9 - - -
29/09:00am - - - - - S 13 17 7 9 - - -
29/08:30am - - - - - S 15 17 8 9 - - -
29/08:00am - - - - - S 15 17 8 9 - - -
29/07:30am - - - - - S 15 19 8 10 - - -
29/07:00am - - - - - SSE 17 20 9 11 - - -
29/06:30am - - - - - S 17 19 9 10 - - -
29/06:00am - - - - - SSE 19 20 10 11 - - -
29/05:30am - - - - - S 19 20 10 11 - - -
29/05:00am - - - - - SSE 15 17 8 9 - - -
29/04:30am - - - - - SSE 15 17 8 9 - - -
29/04:00am - - - - - SSE 15 17 8 9 - - -
29/03:30am - - - - - S 13 17 7 9 - - -
29/03:00am - - - - - S 11 13 6 7 - - -
29/02:30am - - - - - SSW 11 13 6 7 - - -
29/02:00am - - - - - SSW 9 11 5 6 - - -
29/01:30am - - - - - SSW 11 13 6 7 - - -
29/01:00am - - - - - SSW 13 17 7 9 - - -
29/12:30am - - - - - SSW 13 15 7 8 - - -
29/12:00am - - - - - SW 11 13 6 7 - - -
 
Date/Time
EST
Temp
°C
App
Temp
°C
Dew
Point
°C
Rel
Hum
%
Delta-T
°C
Wind Press
QNH
hPa
Press
MSL
hPa
Rain since
9am
mm
Dir  Spd
km/h
Gust
km/h
Spd
kts
Gust
kts
28/11:30pm - - - - - WSW 11 13 6 7 - - -
28/11:00pm - - - - - WSW 13 13 7 7 - - -
28/10:30pm - - - - - SW 13 15 7 8 - - -
28/10:00pm - - - - - SW 11 13 6 7 - - -
28/09:30pm - - - - - SSW 11 13 6 7 - - -
28/09:00pm - - - - - SSW 11 13 6 7 - - -
28/08:30pm - - - - - SSW 9 11 5 6 - - -
28/08:00pm - - - - - SSW 11 13 6 7 - - -
28/07:30pm - - - - - S 9 11 5 6 - - -
28/07:00pm - - - - - S 9 9 5 5 - - -
28/06:30pm - - - - - S 9 9 5 5 - - -
28/06:00pm - - - - - S 7 9 4 5 - - -
28/05:30pm - - - - - SSW 7 9 4 5 - - -
28/05:00pm - - - - - SSW 9 9 5 5 - - -
28/04:30pm - - - - - S 7 9 4 5 - - -
28/04:00pm - - - - - S 7 9 4 5 - - -
28/03:30pm - - - - - S 9 9 5 5 - - -
28/03:00pm - - - - - S 7 9 4 5 - - -
28/02:30pm - - - - - SSE 7 9 4 5 - - -
28/02:00pm - - - - - SSE 9 11 5 6 - - -
28/01:30pm - - - - - S 13 15 7 8 - - -
28/01:00pm - - - - - S 15 19 8 10 - - -
28/12:30pm - - - - - S 15 19 8 10 - - -
28/12:00pm - - - - - S 19 20 10 11 - - -
28/11:30am - - - - - SSW 19 20 10 11 - - -
28/11:00am - - - - - SSW 19 20 10 11 - - -
28/10:30am - - - - - SSW 19 24 10 13 - - -
28/10:00am - - - - - SSW 17 20 9 11 - - -
28/09:30am - - - - - SSW 17 20 9 11 - - -
28/09:00am - - - - - SSW 17 20 9 11 - - -
28/08:30am - - - - - SW 15 20 8 11 - - -
28/08:00am - - - - - SW 13 17 7 9 - - -
28/07:30am - - - - - SW 13 17 7 9 - - -
28/07:00am - - - - - SW 13 15 7 8 - - -
28/06:30am - - - - - SW 15 19 8 10 - - -
28/06:00am - - - - - SSW 17 22 9 12 - - -
28/05:30am - - - - - SSW 19 22 10 12 - - -
28/05:00am - - - - - SW 19 20 10 11 - - -
28/04:30am - - - - - SW 19 22 10 12 - - -
28/04:00am - - - - - SSW 20 24 11 13 - - -
28/03:30am - - - - - SW 20 24 11 13 - - -
28/03:00am - - - - - SW 20 24 11 13 - - -

Other Formats:

Comma delimited format used in spreadsheet applications
http://www.bom.gov.au/fwo/IDQ60801/IDQ60801.94581.axf

JavaScript Object Notation format (JSON) in row-major order
http://www.bom.gov.au/fwo/IDQ60801/IDQ60801.94581.json